createdAt,value
2022-11-06T00:01:56.551Z,14.13
2022-11-06T00:07:18.786Z,14.18
2022-11-06T00:12:40.977Z,13.58
2022-11-06T00:18:03.643Z,14.85
2022-11-06T00:23:25.835Z,14.43
2022-11-06T00:28:48.778Z,14.38
2022-11-06T00:34:13.283Z,14.00
2022-11-06T00:39:35.540Z,13.55
2022-11-06T00:44:57.735Z,13.65
2022-11-06T00:50:20.524Z,13.48
2022-11-06T00:55:42.710Z,15.23
2022-11-06T01:01:06.580Z,13.88
2022-11-06T01:06:32.999Z,14.33
2022-11-06T01:12:12.741Z,13.72
2022-11-06T01:17:24.188Z,12.93
2022-11-06T01:22:46.539Z,12.90
2022-11-06T01:28:08.790Z,13.85
2022-11-06T01:33:30.987Z,13.50
2022-11-06T01:38:56.220Z,13.43
2022-11-06T01:44:41.538Z,14.07
2022-11-06T01:50:07.205Z,13.45
2022-11-06T01:55:34.887Z,13.85
2022-11-06T02:00:58.271Z,15.55
2022-11-06T02:06:22.268Z,16.27
2022-11-06T02:11:48.139Z,13.55
2022-11-06T02:17:18.124Z,12.40
2022-11-06T02:28:24.377Z,13.13
2022-11-06T02:33:51.813Z,13.08
2022-11-06T02:39:21.061Z,13.38
2022-11-06T02:44:46.917Z,10.20
2022-11-06T02:50:14.166Z,13.55
2022-11-06T02:55:44.369Z,13.30
2022-11-06T03:01:11.606Z,13.65
2022-11-06T03:07:00.183Z,14.47
2022-11-06T03:12:48.605Z,15.88
2022-11-06T03:24:01.989Z,13.87
2022-11-06T03:29:41.361Z,12.57
2022-11-06T03:35:24.338Z,11.33
2022-11-06T03:40:51.108Z,12.20
2022-11-06T03:46:19.574Z,15.10
2022-11-06T03:51:49.516Z,15.77
2022-11-06T04:02:35.421Z,14.57
2022-11-06T04:08:19.106Z,13.60
2022-11-06T04:14:01.075Z,14.70
2022-11-06T04:19:29.606Z,13.43
2022-11-06T04:25:43.607Z,12.90
2022-11-06T04:31:19.395Z,14.27
2022-11-06T04:37:07.659Z,11.40
2022-11-06T04:42:55.330Z,12.35
2022-11-06T04:48:18.848Z,15.55
2022-11-06T04:53:43.568Z,14.20
2022-11-06T04:59:05.776Z,15.63
2022-11-06T05:04:29.378Z,15.38
2022-11-06T05:10:01.657Z,14.77
2022-11-06T05:15:23.998Z,14.33
2022-11-06T05:20:46.542Z,12.15
2022-11-06T05:26:08.719Z,11.33
2022-11-06T05:31:31.249Z,11.23
2022-11-06T05:36:54.127Z,10.77
2022-11-06T05:42:16.415Z,10.65
2022-11-06T05:47:38.867Z,11.23
2022-11-06T05:53:01.131Z,10.27
2022-11-06T05:58:23.316Z,10.98
2022-11-06T06:03:46.015Z,10.88
2022-11-06T06:09:08.219Z,12.83
2022-11-06T06:14:30.798Z,14.60
2022-11-06T06:19:54.734Z,18.23
2022-11-06T06:25:22.681Z,13.60
2022-11-06T06:30:41.953Z,15.80
2022-11-06T06:36:04.891Z,16.45
2022-11-06T06:41:27.905Z,13.55
2022-11-06T06:46:50.111Z,14.63
2022-11-06T06:52:12.326Z,19.93
2022-11-06T06:57:34.940Z,19.10
2022-11-06T07:02:57.826Z,20.60
2022-11-06T07:08:20.365Z,20.23
2022-11-06T07:13:42.573Z,19.77
2022-11-06T07:19:05.253Z,20.17
2022-11-06T07:24:27.625Z,16.25
2022-11-06T07:29:49.818Z,14.13
2022-11-06T07:35:12.979Z,12.37
2022-11-06T07:40:35.385Z,12.88
2022-11-06T07:45:57.758Z,11.95
2022-11-06T07:51:24.977Z,12.50
2022-11-06T07:56:47.190Z,11.65
2022-11-06T08:02:09.455Z,13.28
2022-11-06T08:07:32.382Z,13.03
2022-11-06T08:12:54.576Z,14.58
2022-11-06T08:18:18.562Z,15.25
2022-11-06T08:23:43.968Z,15.07
2022-11-06T08:29:09.721Z,16.27
2022-11-06T08:34:31.896Z,15.03
2022-11-06T08:39:54.883Z,25.80
2022-11-06T08:45:17.938Z,17.80
2022-11-06T08:50:41.157Z,18.57
2022-11-06T08:56:03.688Z,19.67
2022-11-06T09:01:26.148Z,18.30
2022-11-06T09:06:48.835Z,16.95
2022-11-06T09:12:11.838Z,16.97
2022-11-06T09:17:34.649Z,16.35
2022-11-06T09:22:57.405Z,15.65
2022-11-06T09:28:20.248Z,15.48
2022-11-06T09:33:43.779Z,17.87
2022-11-06T09:39:06.051Z,16.37
2022-11-06T09:44:55.888Z,15.53
2022-11-06T09:50:21.436Z,10.58
2022-11-06T09:55:50.119Z,12.45
2022-11-06T10:01:30.860Z,11.38
2022-11-06T10:06:53.242Z,11.20
2022-11-06T10:12:38.754Z,10.95
2022-11-06T10:18:15.058Z,9.97
2022-11-06T10:23:57.998Z,8.43
2022-11-06T10:29:55.578Z,9.17
2022-11-06T10:35:58.765Z,7.23
2022-11-06T10:41:33.045Z,5.43
2022-11-06T10:47:00.575Z,4.83
2022-11-06T10:52:33.550Z,5.55
2022-11-06T10:58:02.836Z,4.80
2022-11-06T11:03:32.985Z,4.90
2022-11-06T11:19:55.853Z,4.60
2022-11-06T11:25:23.690Z,4.17
2022-11-06T11:30:45.953Z,4.50
2022-11-06T11:36:10.395Z,4.10
2022-11-06T11:41:40.171Z,5.07
2022-11-06T11:47:11.772Z,4.00
2022-11-06T11:52:36.199Z,3.67
2022-11-06T11:58:02.514Z,4.92
2022-11-06T12:03:26.574Z,4.67
2022-11-06T12:09:00.169Z,4.27
2022-11-06T12:14:41.502Z,6.03
2022-11-06T12:20:14.447Z,6.53
2022-11-06T12:25:49.323Z,6.90
2022-11-06T12:31:47.017Z,7.37
2022-11-06T12:37:16.703Z,5.80
2022-11-06T12:42:42.110Z,5.60
2022-11-06T12:48:26.661Z,6.93
2022-11-06T12:54:12.024Z,7.67
2022-11-06T13:00:05.062Z,7.90
2022-11-06T13:05:32.329Z,7.40
2022-11-06T13:11:37.041Z,7.15
2022-11-06T13:17:37.801Z,7.87
2022-11-06T13:23:35.543Z,8.10
2022-11-06T13:29:04.447Z,7.78
2022-11-06T13:34:41.455Z,7.97
2022-11-06T13:40:10.990Z,7.23
2022-11-06T13:45:39.000Z,6.80
2022-11-06T13:51:28.674Z,6.57
2022-11-06T13:57:04.974Z,6.50
2022-11-06T14:03:05.000Z,5.53
2022-11-06T14:08:41.341Z,8.13
2022-11-06T14:14:21.432Z,6.00
2022-11-06T14:19:50.098Z,5.93
2022-11-06T14:25:10.480Z,5.93
2022-11-06T14:31:11.496Z,7.03
2022-11-06T14:36:35.914Z,7.43
2022-11-06T14:42:04.915Z,6.50
2022-11-06T14:47:50.265Z,6.15
2022-11-06T14:53:30.059Z,7.23
2022-11-06T14:59:25.374Z,30.67
2022-11-06T15:04:54.449Z,8.93
2022-11-06T15:10:35.532Z,8.83
2022-11-06T15:16:05.132Z,9.33
2022-11-06T15:21:31.815Z,9.20
2022-11-06T15:27:05.004Z,8.87
2022-11-06T15:32:46.197Z,9.23
2022-11-06T15:38:19.436Z,8.97
2022-11-06T15:43:53.221Z,8.30
2022-11-06T15:49:35.746Z,8.78
2022-11-06T15:55:00.044Z,17.25
2022-11-06T16:00:36.190Z,10.15
2022-11-06T16:05:59.729Z,10.77
2022-11-06T16:11:24.766Z,9.65
2022-11-06T16:16:59.864Z,10.15
2022-11-06T16:22:26.997Z,12.20
2022-11-06T16:27:53.304Z,14.00
2022-11-06T16:33:28.720Z,12.70
2022-11-06T16:39:00.862Z,11.33
2022-11-06T16:44:35.735Z,12.30
2022-11-06T16:55:38.381Z,35.83
2022-11-06T17:01:04.023Z,14.13
2022-11-06T17:06:34.690Z,13.57
2022-11-06T17:12:00.176Z,11.80
2022-11-06T17:17:34.312Z,11.60
2022-11-06T17:22:56.800Z,12.73
2022-11-06T17:28:20.364Z,12.60
2022-11-06T17:33:43.277Z,12.13
2022-11-06T17:39:06.863Z,11.90
2022-11-06T17:44:32.309Z,11.10
2022-11-06T17:49:54.624Z,11.88
2022-11-06T17:55:17.009Z,12.13
2022-11-06T18:00:40.019Z,14.15
2022-11-06T18:06:02.308Z,14.07
2022-11-06T18:11:25.891Z,15.60
2022-11-06T18:16:50.633Z,17.33
2022-11-06T18:22:13.897Z,17.75
2022-11-06T18:27:36.856Z,17.77
2022-11-06T18:33:00.009Z,18.35
2022-11-06T18:38:22.557Z,17.35
2022-11-06T18:43:45.275Z,18.73
2022-11-06T18:49:08.289Z,16.82
2022-11-06T18:54:31.696Z,15.35
2022-11-06T18:59:54.942Z,14.33
2022-11-06T19:05:17.312Z,16.48
2022-11-06T19:10:39.755Z,16.27
2022-11-06T19:16:05.086Z,15.20
2022-11-06T19:21:29.091Z,15.90
2022-11-06T19:26:51.971Z,15.85
2022-11-06T19:32:15.051Z,15.27
2022-11-06T19:37:38.577Z,15.08
2022-11-06T19:43:02.757Z,16.95
2022-11-06T19:48:25.034Z,34.80
2022-11-06T19:53:48.040Z,16.10
2022-11-06T19:59:12.175Z,14.90
2022-11-06T20:04:34.487Z,14.70
2022-11-06T20:09:59.170Z,14.75
2022-11-06T20:15:24.056Z,15.40
2022-11-06T20:20:46.791Z,14.55
2022-11-06T20:26:11.773Z,13.33
2022-11-06T20:31:35.376Z,15.25
2022-11-06T20:36:58.047Z,15.58
2022-11-06T20:42:20.299Z,15.13
2022-11-06T20:47:42.480Z,15.63
2022-11-06T20:53:04.682Z,20.62
2022-11-06T20:58:26.951Z,16.55
2022-11-06T21:03:50.511Z,15.38
2022-11-06T21:09:13.739Z,15.80
2022-11-06T21:14:36.000Z,17.23
2022-11-06T21:19:58.177Z,17.27
2022-11-06T21:25:20.650Z,18.27
2022-11-06T21:30:53.887Z,16.12
2022-11-06T21:36:32.328Z,15.70
2022-11-06T21:41:54.780Z,16.27
2022-11-06T21:47:16.942Z,16.02
2022-11-06T21:52:58.380Z,16.02
2022-11-06T21:58:20.713Z,18.17
2022-11-06T22:03:42.948Z,16.33
2022-11-06T22:09:07.367Z,16.17
2022-11-06T22:14:31.156Z,16.43
2022-11-06T22:19:53.449Z,15.78
2022-11-06T22:25:16.084Z,16.87
2022-11-06T22:30:38.253Z,17.42
2022-11-06T22:36:02.501Z,16.23
2022-11-06T22:41:28.680Z,17.30
2022-11-06T22:46:51.168Z,17.60
2022-11-06T22:52:13.490Z,17.98
2022-11-06T22:57:35.779Z,19.27
2022-11-06T23:02:57.987Z,17.48
2022-11-06T23:08:20.880Z,18.23
2022-11-06T23:13:44.763Z,19.02
2022-11-06T23:19:06.945Z,19.42
2022-11-06T23:24:29.125Z,19.07
2022-11-06T23:29:51.738Z,17.13
2022-11-06T23:35:16.998Z,17.73
2022-11-06T23:40:39.636Z,16.65
2022-11-06T23:46:02.311Z,17.93
2022-11-06T23:51:25.063Z,16.90
2022-11-06T23:56:47.250Z,15.30
